Time;durP1;ratioP1;P1;durP2;ratioP2;P2;SDS_P1;SDS_P2;PMS_P1;PMS_P2;Temp;Humidity;BMP_temperature;BMP_pressure;BME280_temperature;BME280_humidity;BME280_pressure;Samples;Min_cycle;Max_cycle;Signal;HPM_P1;HPM_P2
2023/01/01 00:23:34;;;;;;;57.30;40.20;;;11.60;99.90;;;;;;5586869;23;20440;-74
2023/01/01 01:46:14;;;;;;;9.83;8.00;;;11.50;99.90;;;;;;507358;26;20932;-74
2023/01/01 01:48:49;;;;;;;11.67;8.90;;;11.60;99.90;;;;;;4947306;29;20542;-75
2023/01/01 01:51:21;;;;;;;11.30;7.60;;;11.50;99.90;;;;;;4949169;29;20521;-74
2023/01/01 01:53:51;;;;;;;10.70;8.40;;;11.40;99.90;;;;;;4948215;29;20672;-74
2023/01/01 01:56:24;;;;;;;12.40;8.10;;;11.50;99.90;;;;;;4949231;28;20478;-75
2023/01/01 01:58:51;;;;;;;9.40;7.73;;;11.30;99.90;;;;;;4949162;28;20940;-75
2023/01/01 02:01:19;;;;;;;10.30;8.50;;;11.30;99.90;;;;;;4949273;28;20447;-74
2023/01/01 02:03:50;;;;;;;14.57;9.20;;;11.30;99.90;;;;;;4948991;28;20451;-74
2023/01/01 02:06:19;;;;;;;10.70;8.60;;;11.30;99.90;;;;;;4948927;28;20986;-74
2023/01/01 02:08:46;;;;;;;12.13;9.47;;;11.20;99.90;;;;;;4950725;28;20519;-75
2023/01/01 02:11:13;;;;;;;20.37;10.37;;;11.20;99.90;;;;;;4968548;28;21033;-75
2023/01/01 02:13:40;;;;;;;11.20;8.50;;;11.10;99.90;;;;;;4949638;28;21017;-75
2023/01/01 02:16:13;;;;;;;10.53;7.87;;;11.10;99.90;;;;;;4948882;29;21038;-74
2023/01/01 02:18:48;;;;;;;11.00;8.87;;;11.30;99.90;;;;;;4949331;29;20486;-74
2023/01/01 02:21:20;;;;;;;11.30;9.30;;;11.30;99.90;;;;;;4949281;29;20523;-75
2023/01/01 02:24:08;;;;;;;13.73;8.63;;;11.30;99.90;;;;;;4949200;29;20722;-75
2023/01/01 02:26:46;;;;;;;10.40;7.10;;;11.40;99.90;;;;;;4945554;28;20479;-74
2023/01/01 02:29:39;;;;;;;12.50;8.30;;;11.30;99.90;;;;;;4948466;28;21030;-74
2023/01/01 02:32:10;;;;;;;9.50;8.03;;;11.00;99.90;;;;;;4929729;29;20878;-75
2023/01/01 02:34:43;;;;;;;10.00;7.10;;;11.10;99.90;;;;;;4930797;29;20463;-74
2023/01/01 02:37:14;;;;;;;10.23;7.97;;;11.10;99.90;;;;;;4948835;29;20952;-74
2023/01/01 02:39:46;;;;;;;8.60;7.60;;;11.10;99.90;;;;;;4949061;29;20473;-75
2023/01/01 02:44:58;;;;;;;12.27;6.43;;;11.00;99.90;;;;;;4941427;29;20643;-74
2023/01/01 02:47:25;;;;;;;11.70;7.40;;;11.10;99.90;;;;;;4948942;28;20578;-75
2023/01/01 02:49:59;;;;;;;9.57;7.20;;;11.10;99.90;;;;;;4952000;29;20538;-75
2023/01/01 02:52:45;;;;;;;8.30;7.40;;;11.20;99.90;;;;;;4951998;29;20538;-75
2023/01/01 02:55:24;;;;;;;10.27;7.70;;;11.00;99.90;;;;;;4951597;29;20912;-75
2023/01/01 02:57:56;;;;;;;11.50;8.03;;;11.00;99.90;;;;;;4951634;28;20462;-75
2023/01/01 03:00:27;;;;;;;13.37;8.30;;;11.00;99.90;;;;;;4951783;29;20449;-75
2023/01/01 03:03:13;;;;;;;9.03;8.00;;;10.90;99.90;;;;;;4950267;29;20951;-75
2023/01/01 03:08:33;;;;;;;10.67;8.70;;;11.00;99.90;;;;;;4951147;28;20489;-76
2023/01/01 03:11:07;;;;;;;12.63;9.00;;;10.80;99.90;;;;;;4951740;29;20545;-75
2023/01/01 03:13:52;;;;;;;13.20;8.83;;;10.70;99.90;;;;;;4951380;29;20479;-75
2023/01/01 03:16:25;;;;;;;10.63;8.30;;;10.70;99.90;;;;;;4951544;29;20443;-75
2023/01/01 03:19:12;;;;;;;11.23;8.57;;;10.70;99.90;;;;;;4950363;29;20459;-75
2023/01/01 03:21:42;;;;;;;12.73;9.53;;;10.70;99.90;;;;;;4951377;29;20867;-75
2023/01/01 03:24:13;;;;;;;15.27;10.10;;;10.60;99.90;;;;;;4951453;29;20805;-76
2023/01/01 03:26:41;;;;;;;14.00;10.70;;;10.50;99.90;;;;;;4951737;29;20545;-75
2023/01/01 03:29:11;;;;;;;11.50;9.80;;;10.80;99.90;;;;;;4951237;28;20936;-76
2023/01/01 03:31:42;;;;;;;13.67;9.80;;;10.50;99.90;;;;;;4945106;29;20485;-75
2023/01/01 03:34:14;;;;;;;12.20;9.27;;;10.30;99.90;;;;;;4938350;29;20480;-75
2023/01/01 03:36:46;;;;;;;18.60;9.27;;;10.30;99.90;;;;;;4947676;29;20495;-75
2023/01/01 03:39:19;;;;;;;14.77;9.47;;;10.20;99.90;;;;;;4931797;29;20452;-75
2023/01/01 03:41:50;;;;;;;14.13;9.63;;;10.30;99.90;;;;;;4931238;29;20456;-75
2023/01/01 03:44:24;;;;;;;13.80;9.53;;;10.40;99.90;;;;;;4931943;29;20454;-75
2023/01/01 03:46:52;;;;;;;14.00;10.60;;;10.30;99.90;;;;;;4931621;29;20507;-75
2023/01/01 03:49:20;;;;;;;11.63;10.43;;;9.90;99.90;;;;;;4931811;29;20889;-75
2023/01/01 03:52:01;;;;;;;14.33;10.00;;;10.20;99.90;;;;;;4940206;29;20530;-75
2023/01/01 03:54:38;;;;;;;14.60;9.83;;;10.30;99.90;;;;;;4951114;29;20835;-75
2023/01/01 03:57:12;;;;;;;20.57;11.23;;;10.20;99.90;;;;;;4951342;29;20538;-75
2023/01/01 03:59:49;;;;;;;13.30;11.50;;;10.30;99.90;;;;;;4951141;29;20518;-75
2023/01/01 04:02:20;;;;;;;13.80;10.67;;;9.90;99.90;;;;;;4950994;29;20531;-75
2023/01/01 04:04:47;;;;;;;13.00;9.60;;;10.40;99.90;;;;;;4951134;29;20525;-75
2023/01/01 04:07:14;;;;;;;19.90;11.13;;;10.40;99.90;;;;;;4950545;29;20947;-75
2023/01/01 04:09:46;;;;;;;18.67;11.50;;;10.10;99.90;;;;;;4940418;29;20496;-75
2023/01/01 04:12:15;;;;;;;16.47;10.27;;;9.90;99.90;;;;;;4931536;29;20526;-75
2023/01/01 04:14:42;;;;;;;16.87;11.50;;;10.00;99.90;;;;;;4931720;28;20547;-75
2023/01/01 04:17:11;;;;;;;26.67;13.63;;;10.00;99.90;;;;;;4931436;29;20491;-75
2023/01/01 04:19:39;;;;;;;21.80;11.90;;;9.90;99.90;;;;;;4931400;29;20475;-75
2023/01/01 04:22:06;;;;;;;25.50;14.70;;;9.70;99.90;;;;;;4933950;29;20444;-74
2023/01/01 04:24:33;;;;;;;27.33;18.13;;;9.50;99.90;;;;;;4941711;29;20464;-75
2023/01/01 04:27:00;;;;;;;17.20;13.53;;;9.30;99.90;;;;;;4950998;29;20909;-75
2023/01/01 04:29:27;;;;;;;23.20;13.83;;;9.20;99.90;;;;;;4960902;29;20510;-76
2023/01/01 04:32:00;;;;;;;19.50;14.50;;;9.20;99.90;;;;;;4960333;29;20526;-75
2023/01/01 04:34:28;;;;;;;27.67;19.30;;;9.20;99.90;;;;;;4951295;28;20594;-75
2023/01/01 04:36:56;;;;;;;44.37;24.33;;;9.10;99.90;;;;;;4950580;29;20443;-76
2023/01/01 04:39:23;;;;;;;37.80;21.60;;;9.50;99.90;;;;;;4951039;29;20510;-75
2023/01/01 04:41:50;;;;;;;33.20;19.27;;;9.00;99.90;;;;;;4950738;29;20506;-75
2023/01/01 04:44:17;;;;;;;25.20;17.13;;;8.90;99.90;;;;;;4949392;29;20581;-75
2023/01/01 04:46:44;;;;;;;37.93;19.20;;;8.90;99.90;;;;;;4950468;29;20930;-75
2023/01/01 04:49:10;;;;;;;31.67;18.13;;;8.90;99.90;;;;;;4950359;29;20545;-75
2023/01/01 04:54:28;;;;;;;33.23;22.50;;;8.70;99.90;;;;;;4952910;28;20446;-75
2023/01/01 04:56:54;;;;;;;43.13;26.40;;;8.70;99.90;;;;;;4953882;29;20477;-75
2023/01/01 04:59:21;;;;;;;44.17;26.23;;;8.70;99.90;;;;;;4954265;29;20450;-75
2023/01/01 05:01:48;;;;;;;33.37;22.53;;;8.60;99.90;;;;;;4953034;29;20913;-76
2023/01/01 05:04:16;;;;;;;25.10;16.90;;;8.50;99.90;;;;;;4953832;29;20533;-75
2023/01/01 05:06:45;;;;;;;25.83;18.10;;;8.50;99.90;;;;;;4953928;28;20487;-75
2023/01/01 05:09:17;;;;;;;22.80;15.10;;;8.50;99.90;;;;;;4953837;29;20575;-75
2023/01/01 05:11:45;;;;;;;23.10;13.07;;;8.50;99.90;;;;;;4954167;29;20488;-75
2023/01/01 05:14:13;;;;;;;26.80;15.30;;;8.60;99.90;;;;;;4953907;28;20465;-75
2023/01/01 05:16:41;;;;;;;32.07;16.70;;;8.70;99.90;;;;;;4953560;29;20526;-75
2023/01/01 05:19:15;;;;;;;21.47;16.17;;;8.70;99.90;;;;;;4952692;29;20487;-75
2023/01/01 05:21:44;;;;;;;25.33;16.40;;;8.80;99.90;;;;;;4953267;28;20476;-75
2023/01/01 05:24:12;;;;;;;15.57;12.83;;;8.60;99.90;;;;;;4953720;28;20466;-76
2023/01/01 05:26:40;;;;;;;22.80;14.57;;;8.80;99.90;;;;;;4953507;29;20458;-75
2023/01/01 05:29:09;;;;;;;25.07;15.30;;;8.90;99.90;;;;;;4953608;29;20589;-75
2023/01/01 05:31:36;;;;;;;17.23;11.90;;;8.90;99.90;;;;;;4953430;28;20855;-75
2023/01/01 05:36:58;;;;;;;13.80;10.47;;;9.10;99.90;;;;;;4953164;28;20451;-75
2023/01/01 05:39:25;;;;;;;14.77;8.97;;;9.40;99.90;;;;;;4953202;29;20546;-75
2023/01/01 05:41:59;;;;;;;11.40;8.27;;;9.50;99.90;;;;;;4953362;29;20498;-75
2023/01/01 05:44:50;;;;;;;14.00;8.37;;;9.60;99.90;;;;;;4953005;29;21007;-75
2023/01/01 05:47:17;;;;;;;14.87;8.60;;;9.60;99.90;;;;;;4952976;28;21220;-74
2023/01/01 05:49:44;;;;;;;12.40;7.97;;;9.70;99.90;;;;;;4953042;29;20506;-75
2023/01/01 05:52:11;;;;;;;10.63;7.73;;;9.80;99.90;;;;;;4951966;29;20529;-75
2023/01/01 05:54:38;;;;;;;12.53;8.67;;;9.70;99.90;;;;;;4952812;29;20451;-75
2023/01/01 05:57:05;;;;;;;8.67;6.70;;;9.50;99.90;;;;;;4952949;29;20461;-75
2023/01/01 05:59:33;;;;;;;9.47;7.50;;;9.80;99.90;;;;;;4952935;29;21014;-75
2023/01/01 06:02:00;;;;;;;8.30;6.10;;;9.90;99.90;;;;;;4952763;29;20514;-75
2023/01/01 06:04:26;;;;;;;7.10;5.47;;;9.90;99.90;;;;;;4952494;28;20467;-75
2023/01/01 06:06:54;;;;;;;9.40;5.80;;;10.00;99.90;;;;;;4951691;29;20463;-75
2023/01/01 06:09:20;;;;;;;8.77;5.47;;;10.10;99.90;;;;;;4952537;28;20575;-76
2023/01/01 06:11:47;;;;;;;5.67;4.60;;;10.10;99.90;;;;;;4952913;29;20534;-75
2023/01/01 06:14:14;;;;;;;6.67;5.30;;;10.20;99.90;;;;;;4953037;29;20497;-75
2023/01/01 06:19:38;;;;;;;6.53;4.37;;;10.10;99.90;;;;;;5060518;27;1347282;-75
2023/01/01 06:22:05;;;;;;;5.50;4.43;;;10.20;99.90;;;;;;5075562;28;20536;-75
2023/01/01 06:24:32;;;;;;;8.20;5.20;;;10.10;99.90;;;;;;5066354;28;20430;-75
2023/01/01 06:26:59;;;;;;;5.97;4.00;;;10.00;99.90;;;;;;5065945;28;20800;-75
2023/01/01 06:29:27;;;;;;;4.67;4.13;;;10.10;99.90;;;;;;5066300;28;20572;-76
2023/01/01 06:31:59;;;;;;;4.83;4.20;;;10.10;99.90;;;;;;5068987;28;20454;-76
2023/01/01 06:34:32;;;;;;;6.27;4.97;;;10.00;99.90;;;;;;5068828;28;20480;-75
2023/01/01 06:37:03;;;;;;;6.83;4.60;;;10.00;99.90;;;;;;5067220;28;20453;-76
2023/01/01 06:39:30;;;;;;;5.03;4.10;;;10.10;99.90;;;;;;5069959;28;20523;-76
2023/01/01 06:41:57;;;;;;;4.83;3.90;;;9.90;99.90;;;;;;5067713;28;20462;-76
2023/01/01 06:44:24;;;;;;;6.07;4.77;;;9.60;99.90;;;;;;5068295;28;20473;-75
2023/01/01 06:46:50;;;;;;;4.90;4.10;;;9.90;99.90;;;;;;5068815;28;20452;-76
2023/01/01 06:49:20;;;;;;;4.30;3.40;;;9.90;99.90;;;;;;5068843;28;21137;-76
2023/01/01 06:51:48;;;;;;;3.83;3.53;;;9.90;99.90;;;;;;5067495;28;20965;-75
2023/01/01 06:54:16;;;;;;;5.07;3.20;;;10.00;99.90;;;;;;5066541;28;20490;-75
2023/01/01 06:56:43;;;;;;;6.87;4.27;;;10.00;99.90;;;;;;5068208;28;20452;-77
2023/01/01 06:59:10;;;;;;;5.03;3.50;;;10.00;99.90;;;;;;5066950;28;20481;-76
2023/01/01 07:01:38;;;;;;;4.23;3.50;;;9.90;99.90;;;;;;5077213;28;20506;-76
2023/01/01 07:04:08;;;;;;;5.70;4.20;;;10.10;99.90;;;;;;5066649;28;20438;-76
2023/01/01 07:06:35;;;;;;;5.63;3.33;;;10.10;99.90;;;;;;5066630;28;20997;-76
2023/01/01 07:09:02;;;;;;;3.93;3.30;;;10.10;99.90;;;;;;5060369;28;20524;-76
2023/01/01 07:11:31;;;;;;;4.67;3.87;;;10.00;99.90;;;;;;5046525;28;20798;-76
2023/01/01 07:13:58;;;;;;;6.40;3.83;;;10.10;99.90;;;;;;5046158;28;20710;-76
2023/01/01 07:16:26;;;;;;;4.90;3.27;;;10.10;99.90;;;;;;5046166;28;20508;-76
2023/01/01 07:18:53;;;;;;;3.93;3.53;;;10.10;99.90;;;;;;5046006;28;20497;-76
2023/01/01 07:21:30;;;;;;;4.63;3.53;;;9.70;99.90;;;;;;5045916;28;20474;-76
2023/01/01 07:23:58;;;;;;;4.63;3.23;;;10.10;99.90;;;;;;5045526;28;20430;-76
2023/01/01 07:26:26;;;;;;;3.97;2.80;;;10.10;99.90;;;;;;5044984;28;20498;-76
2023/01/01 07:28:54;;;;;;;6.90;3.20;;;10.20;99.90;;;;;;5043931;28;20483;-76
2023/01/01 07:31:24;;;;;;;3.27;2.93;;;10.10;99.90;;;;;;5032597;28;20490;-76
2023/01/01 07:33:51;;;;;;;4.10;3.03;;;10.10;99.90;;;;;;5032944;28;20869;-76
2023/01/01 07:36:18;;;;;;;5.17;3.30;;;10.00;99.90;;;;;;5032491;28;20932;-76
2023/01/01 07:38:45;;;;;;;5.27;3.10;;;10.00;99.90;;;;;;5032434;28;20486;-76
2023/01/01 07:41:20;;;;;;;9.97;3.93;;;10.40;99.90;;;;;;5032540;28;20477;-76
2023/01/01 07:43:50;;;;;;;4.77;3.23;;;9.80;99.90;;;;;;5032357;28;20463;-79
2023/01/01 07:46:28;;;;;;;5.47;3.97;;;9.80;99.90;;;;;;5035207;28;20460;-81
2023/01/01 07:48:56;;;;;;;4.17;2.93;;;9.50;99.90;;;;;;5032462;28;20527;-77
2023/01/01 07:51:25;;;;;;;5.73;3.83;;;9.80;99.90;;;;;;5032397;28;20440;-78
2023/01/01 07:53:52;;;;;;;6.40;4.13;;;9.90;99.90;;;;;;5031737;28;20459;-78
2023/01/01 07:56:19;;;;;;;4.70;3.40;;;9.90;99.90;;;;;;5031726;28;20517;-77
2023/01/01 07:58:46;;;;;;;4.30;3.30;;;9.90;99.90;;;;;;5032665;28;20440;-78
2023/01/01 08:01:14;;;;;;;3.20;2.70;;;10.20;99.90;;;;;;5031849;28;20824;-78
2023/01/01 08:03:42;;;;;;;5.93;3.37;;;10.00;99.90;;;;;;5031822;28;20999;-78
2023/01/01 08:06:11;;;;;;;4.80;3.60;;;10.00;99.90;;;;;;5031952;28;20479;-77
2023/01/01 08:08:38;;;;;;;3.60;2.67;;;9.90;99.90;;;;;;5031788;28;20478;-77
2023/01/01 08:11:05;;;;;;;7.10;3.77;;;10.00;99.90;;;;;;5031909;28;20519;-77
2023/01/01 08:13:38;;;;;;;6.13;4.50;;;10.00;99.90;;;;;;5032807;28;20878;-78
2023/01/01 08:16:09;;;;;;;9.27;5.73;;;10.00;99.90;;;;;;5032489;28;20475;-77
2023/01/01 08:18:36;;;;;;;8.67;4.90;;;9.80;99.90;;;;;;5032843;28;20517;-78
2023/01/01 08:21:05;;;;;;;6.43;5.23;;;9.70;99.90;;;;;;5032764;28;20457;-77
2023/01/01 08:23:41;;;;;;;5.40;4.90;;;9.80;99.90;;;;;;5033514;28;20484;-78
2023/01/01 08:26:14;;;;;;;5.40;4.87;;;9.90;99.90;;;;;;5040656;28;20469;-77
2023/01/01 08:28:41;;;;;;;6.70;5.40;;;10.10;99.90;;;;;;5042381;28;20934;-76
2023/01/01 08:31:08;;;;;;;5.70;5.20;;;10.30;99.90;;;;;;5033047;28;20467;-76
2023/01/01 08:33:35;;;;;;;7.07;5.47;;;10.40;99.90;;;;;;5039755;28;20464;-77
2023/01/01 08:36:11;;;;;;;6.10;5.43;;;10.50;99.90;;;;;;5034089;28;20513;-77
2023/01/01 08:38:38;;;;;;;9.70;5.97;;;10.50;99.90;;;;;;5035716;28;20473;-77
2023/01/01 08:41:05;;;;;;;8.70;5.80;;;10.60;99.90;;;;;;5036043;28;20856;-77
2023/01/01 08:43:31;;;;;;;8.60;5.47;;;10.60;99.90;;;;;;5039437;28;20486;-77
2023/01/01 08:46:02;;;;;;;6.17;5.20;;;10.80;99.90;;;;;;5039087;28;20519;-77
2023/01/01 08:48:29;;;;;;;4.17;3.77;;;11.00;99.90;;;;;;5039652;28;20487;-77
2023/01/01 08:50:59;;;;;;;5.03;4.53;;;11.20;99.90;;;;;;5039639;28;20459;-77
2023/01/01 08:53:28;;;;;;;7.03;6.10;;;11.30;99.90;;;;;;5033750;28;20498;-77
2023/01/01 08:55:57;;;;;;;5.73;4.60;;;11.40;99.90;;;;;;5032385;28;20463;-76
2023/01/01 08:58:24;;;;;;;5.07;4.43;;;11.50;99.90;;;;;;5044958;28;20486;-76
2023/01/01 09:03:50;;;;;;;4.83;4.07;;;11.50;99.90;;;;;;5046696;28;20534;-77
2023/01/01 09:06:17;;;;;;;6.47;4.43;;;11.60;99.90;;;;;;5030925;28;20543;-77
2023/01/01 09:08:45;;;;;;;7.17;4.40;;;11.60;99.90;;;;;;5036327;28;20479;-77
2023/01/01 09:11:36;;;;;;;9.03;4.53;;;11.80;99.90;;;;;;5039404;28;20816;-77
2023/01/01 09:14:03;;;;;;;5.80;4.03;;;12.00;99.90;;;;;;5038993;28;20521;-77
2023/01/01 09:16:30;;;;;;;4.30;3.90;;;12.20;99.90;;;;;;5038820;28;20447;-78
2023/01/01 09:18:57;;;;;;;6.00;4.07;;;12.10;99.90;;;;;;5038299;28;20475;-78
2023/01/01 09:21:24;;;;;;;3.50;3.20;;;12.20;99.90;;;;;;5032740;28;20520;-78
2023/01/01 09:23:52;;;;;;;5.70;3.63;;;12.30;99.90;;;;;;5031702;28;20448;-77
2023/01/01 09:26:19;;;;;;;4.57;3.70;;;12.30;99.90;;;;;;5030929;28;20463;-78
2023/01/01 09:31:27;;;;;;;3.70;3.40;;;12.30;99.90;;;;;;5030193;28;20447;-78
2023/01/01 09:33:54;;;;;;;4.20;3.80;;;12.30;99.90;;;;;;5040001;28;20475;-78
2023/01/01 09:36:29;;;;;;;5.10;4.53;;;12.40;99.90;;;;;;5036818;28;20476;-77
2023/01/01 09:38:58;;;;;;;4.63;3.40;;;12.40;99.90;;;;;;5032259;28;20491;-80
2023/01/01 09:41:38;;;;;;;6.20;3.97;;;12.40;99.90;;;;;;5035504;28;20979;-77
2023/01/01 09:44:18;;;;;;;6.07;4.30;;;12.40;99.90;;;;;;5029931;28;20475;-76
2023/01/01 09:46:45;;;;;;;5.80;4.83;;;12.40;99.90;;;;;;5037633;28;20562;-77
2023/01/01 09:49:17;;;;;;;6.97;3.97;;;12.50;99.90;;;;;;5045905;28;20514;-77
2023/01/01 09:51:51;;;;;;;4.03;3.30;;;12.60;99.90;;;;;;5049440;28;20489;-78
2023/01/01 09:54:27;;;;;;;6.70;5.03;;;12.70;99.90;;;;;;5048271;28;20830;-78
2023/01/01 09:56:58;;;;;;;4.90;3.10;;;12.80;99.90;;;;;;5049042;28;20516;-77
2023/01/01 09:59:25;;;;;;;5.37;3.77;;;13.00;99.90;;;;;;5032308;28;20453;-78
2023/01/01 10:01:59;;;;;;;4.03;3.10;;;13.00;99.90;;;;;;5050311;28;20517;-77
2023/01/01 10:04:36;;;;;;;5.10;3.10;;;13.30;99.90;;;;;;5049810;28;20439;-77
2023/01/01 10:07:12;;;;;;;4.63;2.53;;;13.50;99.90;;;;;;5050143;28;20541;-78
2023/01/01 10:09:46;;;;;;;2.33;2.13;;;13.80;99.90;;;;;;5049617;28;20500;-77
2023/01/01 10:12:24;;;;;;;3.70;2.67;;;14.20;99.90;;;;;;5037465;28;20882;-78
2023/01/01 10:18:15;;;;;;;4.80;1.87;;;14.30;99.90;;;;;;5044686;28;20857;-78
2023/01/01 10:20:48;;;;;;;5.60;3.07;;;14.70;99.90;;;;;;5044217;28;20919;-78
2023/01/01 10:23:19;;;;;;;2.90;2.33;;;14.60;99.90;;;;;;5046652;28;20497;-77
2023/01/01 10:25:47;;;;;;;4.03;2.50;;;14.40;99.90;;;;;;5047705;28;20707;-76
2023/01/01 10:28:21;;;;;;;2.97;2.77;;;14.50;99.90;;;;;;5039912;28;20897;-78
2023/01/01 10:30:47;;;;;;;2.43;2.10;;;14.60;99.90;;;;;;5031659;28;20538;-78
2023/01/01 10:33:14;;;;;;;4.13;2.67;;;14.60;99.90;;;;;;5031100;28;20526;-78
2023/01/01 10:35:45;;;;;;;3.63;2.57;;;14.60;99.90;;;;;;5030721;28;20467;-79
2023/01/01 10:38:24;;;;;;;4.20;2.03;;;14.70;99.90;;;;;;5028952;28;20817;-77
2023/01/01 10:40:54;;;;;;;4.13;2.90;;;14.70;99.90;;;;;;5028757;28;20539;-76
2023/01/01 10:43:20;;;;;;;2.10;1.90;;;14.90;99.90;;;;;;5029073;28;20451;-76
2023/01/01 10:45:52;;;;;;;2.67;2.40;;;15.00;99.90;;;;;;5028505;28;21054;-76
2023/01/01 10:48:21;;;;;;;2.30;2.07;;;15.10;99.90;;;;;;5029048;28;21108;-78
2023/01/01 10:50:51;;;;;;;3.37;2.50;;;15.20;99.90;;;;;;5028325;28;20897;-77
2023/01/01 10:56:45;;;;;;;2.37;2.17;;;15.30;99.90;;;;;;5027107;28;20897;-77
2023/01/01 10:59:39;;;;;;;2.40;2.20;;;15.30;99.90;;;;;;5028722;28;20928;-77
2023/01/01 11:02:19;;;;;;;4.10;2.70;;;15.40;99.90;;;;;;5041937;28;20455;-77
2023/01/01 11:04:47;;;;;;;4.30;2.47;;;15.50;99.90;;;;;;5049508;28;20926;-77
2023/01/01 11:07:20;;;;;;;2.57;2.37;;;15.60;99.90;;;;;;5051958;28;20508;-77
2023/01/01 11:09:49;;;;;;;2.17;1.70;;;15.80;99.90;;;;;;5052083;28;20677;-77
2023/01/01 11:12:23;;;;;;;7.67;2.30;;;15.60;99.90;;;;;;5053764;28;20875;-79
2023/01/01 11:14:52;;;;;;;4.20;2.50;;;15.60;99.90;;;;;;5051877;28;20446;-77
2023/01/01 11:17:23;;;;;;;2.27;2.07;;;15.70;99.90;;;;;;5050194;28;20574;-80
2023/01/01 11:19:51;;;;;;;4.03;2.30;;;16.00;99.90;;;;;;5032343;28;20984;-76
2023/01/01 11:22:37;;;;;;;4.77;2.80;;;15.80;99.90;;;;;;5031974;28;20489;-77
2023/01/01 11:25:16;;;;;;;13.60;4.77;;;16.10;99.90;;;;;;5032270;28;20543;-77
2023/01/01 11:27:46;;;;;;;4.10;2.20;;;16.30;99.90;;;;;;5031704;28;20453;-77
2023/01/01 11:30:24;;;;;;;3.00;2.27;;;16.70;99.90;;;;;;5031468;28;20493;-77
2023/01/01 11:32:55;;;;;;;3.20;2.90;;;16.60;99.90;;;;;;5031269;28;20469;-77
2023/01/01 11:35:24;;;;;;;2.50;2.30;;;16.70;99.90;;;;;;5032017;28;20967;-77
2023/01/01 11:37:53;;;;;;;3.07;2.17;;;17.00;99.90;;;;;;5031964;28;20571;-77
2023/01/01 11:40:24;;;;;;;3.50;2.47;;;17.30;99.90;;;;;;5031668;28;20808;-78
2023/01/01 11:42:55;;;;;;;3.13;2.30;;;18.00;99.90;;;;;;5032045;28;21202;-77
2023/01/01 11:45:25;;;;;;;2.07;1.87;;;18.20;99.90;;;;;;5031599;28;20483;-79
2023/01/01 11:47:55;;;;;;;2.20;2.00;;;18.40;99.90;;;;;;5031196;28;20459;-83
2023/01/01 11:50:26;;;;;;;4.53;3.13;;;18.60;99.90;;;;;;5031124;28;20480;-82
2023/01/01 11:52:57;;;;;;;2.03;1.87;;;18.00;99.90;;;;;;5035192;28;20451;-82
2023/01/01 11:55:37;;;;;;;2.00;1.80;;;17.90;99.90;;;;;;5039541;28;20452;-80
2023/01/01 11:58:14;;;;;;;2.20;2.00;;;17.70;99.90;;;;;;5048075;28;20458;-80
2023/01/01 12:00:41;;;;;;;2.30;1.70;;;17.70;99.90;;;;;;5041928;28;20523;-78
2023/01/01 12:03:18;;;;;;;1.87;1.70;;;18.10;99.90;;;;;;5053252;28;20506;-81
2023/01/01 12:05:49;;;;;;;1.90;1.80;;;18.10;99.90;;;;;;5049115;28;20471;-83
2023/01/01 12:08:32;;;;;;;2.90;1.93;;;18.40;99.90;;;;;;5030546;28;20459;-85
2023/01/01 12:11:06;;;;;;;3.83;1.50;;;18.20;99.90;;;;;;5031746;28;20487;-81
2023/01/01 12:13:44;;;;;;;2.27;1.63;;;18.30;99.90;;;;;;5047393;28;20461;-81
2023/01/01 12:16:15;;;;;;;2.80;1.80;;;18.60;99.90;;;;;;5048913;28;20529;-81
2023/01/01 12:18:47;;;;;;;3.63;2.27;;;19.00;99.90;;;;;;5048794;28;20498;-81
2023/01/01 12:21:19;;;;;;;2.00;1.80;;;19.80;99.90;;;;;;5049125;28;20761;-83
2023/01/01 12:23:46;;;;;;;1.90;1.80;;;20.70;99.90;;;;;;5042885;28;20468;-86
2023/01/01 12:26:19;;;;;;;1.70;1.60;;;20.40;99.90;;;;;;5036967;28;20455;-87
2023/01/01 12:29:19;;;;;;;3.27;2.37;;;19.70;99.90;;;;;;5035087;28;20985;-85
2023/01/01 12:31:55;;;;;;;5.00;2.50;;;19.30;99.90;;;;;;5023258;28;20475;-82
2023/01/01 12:34:30;;;;;;;2.40;1.93;;;19.10;99.90;;;;;;5040774;28;20458;-84
2023/01/01 12:37:03;;;;;;;4.00;1.93;;;20.00;99.90;;;;;;5039320;28;20926;-82
2023/01/01 12:40:03;;;;;;;2.73;1.90;;;19.90;99.90;;;;;;5035314;28;20536;-77
2023/01/01 12:42:42;;;;;;;2.13;1.90;;;19.30;99.90;;;;;;5039087;28;20466;-79
2023/01/01 12:45:26;;;;;;;4.93;2.47;;;19.00;99.90;;;;;;5048719;28;20460;-80
2023/01/01 12:48:03;;;;;;;2.30;1.77;;;19.40;99.90;;;;;;5049822;28;20450;-83
2023/01/01 12:50:40;;;;;;;2.33;2.13;;;19.80;99.90;;;;;;5052007;28;20691;-84
2023/01/01 12:53:20;;;;;;;1.90;1.70;;;19.00;99.90;;;;;;5029838;28;20537;-85
2023/01/01 12:56:04;;;;;;;1.90;1.70;;;19.30;99.90;;;;;;5029838;28;20513;-77
2023/01/01 12:58:35;;;;;;;1.60;1.50;;;19.40;99.90;;;;;;5028482;28;20443;-76
2023/01/01 13:01:07;;;;;;;3.27;1.73;;;19.30;99.90;;;;;;5046496;28;20458;-75
2023/01/01 13:03:42;;;;;;;3.30;1.87;;;19.20;99.90;;;;;;5049504;28;20445;-77
2023/01/01 13:06:12;;;;;;;2.63;2.00;;;19.60;99.90;;;;;;5048479;28;20449;-83
2023/01/01 13:08:41;;;;;;;2.57;2.37;;;19.90;99.90;;;;;;5049224;28;20967;-82
2023/01/01 13:11:10;;;;;;;2.13;1.83;;;20.00;99.90;;;;;;5033585;28;20487;-77
2023/01/01 13:13:37;;;;;;;3.57;2.70;;;20.60;99.90;;;;;;5029096;28;20452;-76
2023/01/01 13:16:09;;;;;;;2.93;2.63;;;20.70;99.90;;;;;;5029511;28;20501;-76
2023/01/01 13:18:36;;;;;;;3.33;2.67;;;21.70;99.90;;;;;;5026864;28;21003;-76
2023/01/01 13:21:20;;;;;;;3.27;2.70;;;22.40;99.90;;;;;;5028360;28;20444;-75
2023/01/01 13:23:50;;;;;;;9.80;4.23;;;21.70;99.90;;;;;;5043691;28;20556;-75
2023/01/01 13:26:38;;;;;;;2.93;1.93;;;21.50;99.90;;;;;;5039130;28;20908;-76
2023/01/01 13:29:43;;;;;;;3.40;2.70;;;21.30;99.90;;;;;;5037632;28;20459;-75
2023/01/01 13:32:13;;;;;;;7.33;3.90;;;21.00;99.90;;;;;;5046247;28;20494;-78
2023/01/01 13:35:14;;;;;;;2.20;1.90;;;21.20;99.90;;;;;;5048177;28;20447;-76
2023/01/01 13:37:46;;;;;;;9.30;3.90;;;20.20;99.90;;;;;;5042774;28;20879;-80
2023/01/01 13:40:48;;;;;;;5.30;2.37;;;20.60;99.90;;;;;;5027835;28;20532;-83
2023/01/01 13:43:30;;;;;;;2.03;1.90;;;20.00;99.90;;;;;;5027521;28;20450;-77
2023/01/01 13:45:59;;;;;;;2.63;1.60;;;19.80;99.90;;;;;;5027742;28;20455;-77
2023/01/01 13:48:54;;;;;;;1.70;1.40;;;20.00;99.90;;;;;;5034709;28;20634;-71
2023/01/01 13:51:51;;;;;;;3.53;3.13;;;20.20;99.90;;;;;;5037698;28;20483;-72
2023/01/01 13:55:12;;;;;;;3.20;1.80;;;20.80;99.90;;;;;;5013924;28;20789;-73
2023/01/01 13:58:07;;;;;;;2.90;1.80;;;20.40;99.90;;;;;;5046560;28;20486;-75
2023/01/01 14:00:55;;;;;;;4.47;2.70;;;20.00;99.90;;;;;;5043186;28;20838;-76
2023/01/01 14:03:24;;;;;;;2.60;1.90;;;21.20;99.90;;;;;;5027195;28;20525;-76
2023/01/01 14:05:57;;;;;;;4.50;2.67;;;22.10;99.90;;;;;;5026794;28;20462;-76
2023/01/01 14:08:28;;;;;;;3.70;2.60;;;23.10;99.90;;;;;;5026288;28;20879;-76
2023/01/01 14:10:56;;;;;;;4.00;2.50;;;23.70;99.90;;;;;;5026879;28;20884;-76
2023/01/01 14:13:26;;;;;;;2.90;2.70;;;23.10;99.90;;;;;;5026751;28;20443;-76
2023/01/01 14:15:56;;;;;;;3.27;2.60;;;22.20;99.90;;;;;;5026239;28;20459;-76
2023/01/01 14:18:34;;;;;;;7.30;3.13;;;21.30;99.90;;;;;;5026662;28;20566;-75
2023/01/01 14:21:07;;;;;;;3.73;3.20;;;19.90;99.90;;;;;;5027017;28;20455;-76
2023/01/01 14:23:37;;;;;;;3.63;2.30;;;19.20;99.90;;;;;;5043538;28;20455;-77
2023/01/01 14:26:07;;;;;;;8.80;4.00;;;18.80;99.90;;;;;;5043600;28;20482;-79
2023/01/01 14:28:35;;;;;;;11.13;4.83;;;18.30;99.90;;;;;;5043166;28;20513;-78
2023/01/01 14:31:05;;;;;;;2.93;2.40;;;17.80;99.90;;;;;;5045443;28;20989;-77
2023/01/01 14:33:34;;;;;;;5.70;2.53;;;17.70;99.90;;;;;;5044080;28;20455;-79
2023/01/01 14:36:04;;;;;;;3.20;2.47;;;17.50;99.90;;;;;;5044123;28;20545;-78
2023/01/01 14:38:32;;;;;;;3.20;2.47;;;17.30;99.90;;;;;;5045744;28;20785;-78
2023/01/01 14:41:17;;;;;;;4.00;2.93;;;17.10;99.90;;;;;;5042472;28;20442;-78
2023/01/01 14:43:46;;;;;;;4.07;2.40;;;16.90;99.90;;;;;;5045054;28;20450;-78
2023/01/01 14:46:16;;;;;;;2.50;2.30;;;16.80;99.90;;;;;;5040611;28;21052;-78
2023/01/01 14:48:44;;;;;;;2.60;2.40;;;16.60;99.90;;;;;;5046101;28;20453;-79
2023/01/01 14:51:15;;;;;;;3.90;2.40;;;16.40;99.90;;;;;;5040592;28;21069;-79
2023/01/01 14:53:43;;;;;;;3.17;2.90;;;16.30;99.90;;;;;;5046251;28;20798;-78
2023/01/01 14:56:10;;;;;;;6.03;2.60;;;16.30;99.90;;;;;;5045992;28;20438;-80
2023/01/01 14:58:40;;;;;;;3.37;3.03;;;16.10;99.90;;;;;;5046870;28;20450;-79
2023/01/01 15:01:14;;;;;;;3.53;2.10;;;16.10;99.90;;;;;;5046977;28;20423;-78
2023/01/01 15:03:41;;;;;;;3.73;2.73;;;15.90;99.90;;;;;;5047264;28;20836;-77
2023/01/01 15:06:17;;;;;;;7.67;2.60;;;15.80;99.90;;;;;;5046774;28;20822;-78
2023/01/01 15:08:49;;;;;;;2.50;2.13;;;15.80;99.90;;;;;;5047647;28;20445;-78
2023/01/01 15:11:17;;;;;;;3.10;2.80;;;15.90;99.90;;;;;;5047156;28;20931;-78
2023/01/01 15:13:53;;;;;;;3.30;3.00;;;15.90;99.90;;;;;;5047726;28;20763;-78
2023/01/01 15:16:20;;;;;;;4.23;2.80;;;15.80;99.90;;;;;;5046897;28;20446;-78
2023/01/01 15:18:49;;;;;;;3.77;2.57;;;15.70;99.90;;;;;;5047619;28;20480;-78